Port Charlotte, FL (33952)

1:27 PM EST on December 04, 2016 (GMT -0500)
41 @ MIDWAY | | Change Station

Elev 16 ft 26.99 °N, 82.11 °W | Updated 2 minutes ago

Scattered Clouds
Scattered Clouds
84.0 °F
Feels Like 86 °F
N
14.0
Wind Variable Wind from SE
Gusts 25.0 mph

Today
High -- | Low -- °F
--% Chance of Precip.
Yesterday
High -- | Low -- °F
Precip. -- in
Pressure 30.04 in
Visibility 10.0 miles
Clouds Scattered Clouds 3400 ft
Heat Index 86 °F
Dew Point 66 °F
Humidity 54%
Rainfall 0.00 in
Snow Depth Not available.
7:02 AM 5:34 PM
Waxing Crescent, 24% visible
METAR KPGD 041753Z 13012G19KT 10SM SCT034 29/19 A3003 RMK AO2 SLP171 T02890189 10289 20144 58022
Pressure 30.04 in
Visibility 10.0 miles
Clouds Scattered Clouds 3400 ft
Heat Index 86 °F
Dew Point 66 °F
Humidity 54%
Rainfall 0.00 in
Snow Depth Not available.
7:02 AM 5:34 PM
Waxing Crescent, 24% visible
METAR KPGD 041753Z 13012G19KT 10SM SCT034 29/19 A3003 RMK AO2 SLP171 T02890189 10289 20144 58022

10-Day Weather Forecast

Almanac

Astronomy

Dec. 04, 2016 Rise Set
Actual Time
Civil Twilight
Nautical Twilight
Astronomical Twilight
Moon
Length of Visible Light
Length of Day
Tomorrow will be .
, % of the Moon is Illuminated

Today's Extremes

State Highs State Lows

Community

WunderPhotos

Upload Photos

1,955,639 photos uploaded!

WunderBlog® & News

Nearby

Air Quality

  Air Quality AQ Index Pollutant
Not available.

Snow Depth

Station Depth Elevation

Earthquake Activity

City Distance Mag. Time & Date
Minimum magnitude displayed is 2.5.

Coastal Water Temperatures

Place Temperature

Stations

Nearby Weather Stations

Station Location Temp. Windchill Dew Point Humidity Wind Precip. Elev Updated Type
                   

Watches & Warnings

There are currently no watches in effect.